createdAt,value
2024-04-18T00:01:36.941Z,71.90
2024-04-18T00:04:04.115Z,71.95
2024-04-18T00:06:31.340Z,72.05
2024-04-18T00:08:58.304Z,72.04
2024-04-18T00:11:25.513Z,71.89
2024-04-18T00:13:52.569Z,71.96
2024-04-18T00:16:19.516Z,71.87
2024-04-18T00:18:46.513Z,72.33
2024-04-18T00:21:13.507Z,72.15
2024-04-18T00:23:40.453Z,72.16
2024-04-18T00:26:08.442Z,72.49
2024-04-18T00:28:35.423Z,72.31
2024-04-18T00:31:02.416Z,72.76
2024-04-18T00:33:29.429Z,72.66
2024-04-18T00:35:56.433Z,72.51
2024-04-18T00:38:23.448Z,71.97
2024-04-18T00:40:50.432Z,72.50
2024-04-18T00:43:21.510Z,71.92
2024-04-18T00:45:49.079Z,72.39
2024-04-18T00:48:16.794Z,72.65
2024-04-18T00:50:44.275Z,72.41
2024-04-18T00:53:11.501Z,72.48
2024-04-18T00:55:41.927Z,72.04
2024-04-18T00:58:13.046Z,73.02
2024-04-18T01:00:41.892Z,73.48
2024-04-18T01:03:08.918Z,72.95
2024-04-18T01:05:37.037Z,73.06
2024-04-18T01:08:05.031Z,73.72
2024-04-18T01:10:31.998Z,73.22
2024-04-18T01:13:02.741Z,73.12
2024-04-18T01:15:30.152Z,73.22
2024-04-18T01:17:57.348Z,72.95
2024-04-18T01:20:26.444Z,72.54
2024-04-18T01:22:53.460Z,72.61
2024-04-18T01:25:20.601Z,72.49
2024-04-18T01:27:47.772Z,72.36
2024-04-18T01:30:14.909Z,72.29
2024-04-18T01:32:42.097Z,72.33
2024-04-18T01:35:09.325Z,72.41
2024-04-18T01:37:36.320Z,72.70
2024-04-18T01:40:03.488Z,72.70
2024-04-18T01:42:30.502Z,73.08
2024-04-18T01:44:57.489Z,73.23
2024-04-18T01:47:24.455Z,73.38
2024-04-18T01:49:51.524Z,73.24
2024-04-18T01:52:18.499Z,73.22
2024-04-18T01:54:45.826Z,73.17
2024-04-18T01:57:12.891Z,73.23
2024-04-18T01:59:39.862Z,73.02
2024-04-18T02:02:06.851Z,73.20
2024-04-18T02:04:33.918Z,72.91
2024-04-18T02:07:01.279Z,73.29
2024-04-18T02:09:28.290Z,73.15
2024-04-18T02:11:55.377Z,72.95
2024-04-18T02:14:22.358Z,73.03
2024-04-18T02:16:49.390Z,73.07
2024-04-18T02:19:16.447Z,72.93
2024-04-18T02:21:43.574Z,73.02
2024-04-18T02:24:10.555Z,73.02
2024-04-18T02:26:37.539Z,72.96
2024-04-18T02:29:04.564Z,72.26
2024-04-18T02:31:31.673Z,72.17
2024-04-18T02:33:58.690Z,72.51
2024-04-18T02:36:25.756Z,72.04
2024-04-18T02:38:52.920Z,72.43
2024-04-18T02:41:20.134Z,72.09
2024-04-18T02:43:49.526Z,72.77
2024-04-18T02:46:16.507Z,72.50
2024-04-18T02:48:43.515Z,72.29
2024-04-18T02:51:10.693Z,72.47
2024-04-18T02:53:37.663Z,72.76
2024-04-18T02:56:05.161Z,72.88
2024-04-18T02:58:32.448Z,73.21
2024-04-18T03:01:04.899Z,72.94
2024-04-18T03:03:32.102Z,72.79
2024-04-18T03:06:05.709Z,73.45
2024-04-18T03:08:32.907Z,73.24
2024-04-18T03:10:59.898Z,72.98
2024-04-18T03:13:26.844Z,72.74
2024-04-18T03:15:53.943Z,73.15
2024-04-18T03:18:21.027Z,73.25
2024-04-18T03:20:54.501Z,73.06
2024-04-18T03:23:21.506Z,72.93
2024-04-18T03:25:50.892Z,73.28
2024-04-18T03:28:17.868Z,73.22
2024-04-18T03:30:45.000Z,72.99
2024-04-18T03:33:12.151Z,72.67
2024-04-18T03:35:40.212Z,73.13
2024-04-18T03:38:07.616Z,72.75
2024-04-18T03:40:35.527Z,73.56
2024-04-18T03:43:02.687Z,72.95
2024-04-18T03:45:30.256Z,73.56
2024-04-18T03:47:57.366Z,73.28
2024-04-18T03:50:24.398Z,74.25
2024-04-18T03:52:51.353Z,73.52
2024-04-18T03:55:18.415Z,73.19
2024-04-18T03:57:45.499Z,73.38
2024-04-18T04:00:13.001Z,73.09
2024-04-18T04:02:40.536Z,73.66
2024-04-18T04:05:07.768Z,72.74
2024-04-18T04:07:34.742Z,73.16
2024-04-18T04:10:01.781Z,73.22
2024-04-18T04:12:28.812Z,73.26
2024-04-18T04:14:55.853Z,73.27
2024-04-18T04:17:22.850Z,73.26
2024-04-18T04:19:49.821Z,73.31
2024-04-18T04:22:17.326Z,73.79
2024-04-18T04:24:44.430Z,73.71
2024-04-18T04:27:11.422Z,73.85
2024-04-18T04:29:38.564Z,74.01
2024-04-18T04:32:05.620Z,74.27
2024-04-18T04:34:32.581Z,73.96
2024-04-18T04:36:59.603Z,73.94
2024-04-18T04:39:26.619Z,73.69
2024-04-18T04:41:53.629Z,74.40
2024-04-18T04:44:20.623Z,74.03
2024-04-18T04:46:47.587Z,74.26
2024-04-18T04:49:14.696Z,73.73
2024-04-18T04:51:41.761Z,73.97
2024-04-18T04:54:08.797Z,73.51
2024-04-18T04:56:35.742Z,73.41
2024-04-18T04:59:02.719Z,73.64
2024-04-18T05:01:29.756Z,73.94
2024-04-18T05:03:56.824Z,73.46
2024-04-18T05:06:24.887Z,73.55
2024-04-18T05:08:52.031Z,73.09
2024-04-18T05:11:19.052Z,73.83
2024-04-18T05:13:46.050Z,73.28
2024-04-18T05:16:13.085Z,73.09
2024-04-18T05:18:40.432Z,73.13
2024-04-18T05:21:07.461Z,72.88
2024-04-18T05:23:34.614Z,73.04
2024-04-18T05:26:01.619Z,72.53
2024-04-18T05:28:41.629Z,72.62
2024-04-18T05:31:09.352Z,72.72
2024-04-18T05:33:36.496Z,72.49
2024-04-18T05:36:05.485Z,73.30
2024-04-18T05:38:32.521Z,72.91
2024-04-18T05:40:59.551Z,72.67
2024-04-18T05:43:26.617Z,72.94
2024-04-18T05:45:54.830Z,72.76
2024-04-18T05:48:21.997Z,73.09
2024-04-18T05:50:49.002Z,72.95
2024-04-18T05:53:15.989Z,72.93
2024-04-18T05:55:42.972Z,72.56
2024-04-18T05:58:10.277Z,72.98
2024-04-18T06:00:37.606Z,72.85
2024-04-18T06:03:06.147Z,72.71
2024-04-18T06:05:33.206Z,72.12
2024-04-18T06:08:00.159Z,71.00
2024-04-18T06:10:27.183Z,72.39
2024-04-18T06:12:54.172Z,71.99
2024-04-18T06:15:21.219Z,71.60
2024-04-18T06:17:48.270Z,71.36
2024-04-18T06:20:15.431Z,71.61
2024-04-18T06:22:42.440Z,71.33
2024-04-18T06:25:10.430Z,71.25
2024-04-18T06:27:37.466Z,71.21
2024-04-18T06:30:05.015Z,71.32
2024-04-18T06:32:32.170Z,71.05
2024-04-18T06:34:59.178Z,71.04
2024-04-18T06:37:27.174Z,71.14
2024-04-18T06:39:54.332Z,70.21
2024-04-18T06:42:21.564Z,70.72
2024-04-18T06:44:48.582Z,70.44
2024-04-18T06:47:15.711Z,70.56
2024-04-18T06:49:42.738Z,70.59
2024-04-18T06:52:09.750Z,70.26
2024-04-18T06:54:36.768Z,70.09
2024-04-18T06:57:03.939Z,70.56
2024-04-18T06:59:30.970Z,69.97
2024-04-18T07:01:57.943Z,69.80
2024-04-18T07:04:24.987Z,69.53
2024-04-18T07:06:52.080Z,69.29
2024-04-18T07:09:19.460Z,69.52
2024-04-18T07:11:46.487Z,69.14
2024-04-18T07:14:13.583Z,69.06
2024-04-18T07:16:40.793Z,68.90
2024-04-18T07:19:07.790Z,69.59
2024-04-18T07:21:34.838Z,68.71
2024-04-18T07:24:02.203Z,68.33
2024-04-18T07:26:29.370Z,68.69
2024-04-18T07:28:56.328Z,69.19
2024-04-18T07:31:23.343Z,69.39
2024-04-18T07:33:50.383Z,69.15
2024-04-18T07:36:22.502Z,68.17
2024-04-18T07:38:53.147Z,68.03
2024-04-18T07:41:20.329Z,67.81
2024-04-18T07:43:47.285Z,67.08
2024-04-18T07:46:15.191Z,67.50
2024-04-18T07:48:42.435Z,66.99
2024-04-18T07:51:09.470Z,67.02
2024-04-18T07:53:36.906Z,66.88
2024-04-18T07:56:05.845Z,66.39
2024-04-18T07:58:33.397Z,66.65
2024-04-18T08:01:02.186Z,66.61
2024-04-18T08:03:31.651Z,66.11
2024-04-18T08:06:02.266Z,66.71
2024-04-18T08:08:34.530Z,66.40
2024-04-18T08:11:25.812Z,66.22
2024-04-18T08:13:54.685Z,67.17
2024-04-18T08:16:24.543Z,67.46
2024-04-18T08:18:51.627Z,66.81
2024-04-18T08:21:18.664Z,66.16
2024-04-18T08:23:52.564Z,66.97
2024-04-18T08:26:19.715Z,66.59
2024-04-18T08:28:46.688Z,66.30
2024-04-18T08:31:13.663Z,66.02
2024-04-18T08:33:46.732Z,65.34
2024-04-18T08:36:17.942Z,65.16
2024-04-18T08:38:44.982Z,66.09
2024-04-18T08:41:14.326Z,65.75
2024-04-18T08:43:43.541Z,64.35
2024-04-18T08:46:12.998Z,63.91
2024-04-18T08:48:40.490Z,63.71
2024-04-18T08:51:08.931Z,63.07
2024-04-18T08:53:36.101Z,62.79
2024-04-18T08:56:10.391Z,62.69
2024-04-18T08:58:37.847Z,63.19
2024-04-18T09:01:04.896Z,60.95
2024-04-18T09:03:34.646Z,63.39
2024-04-18T09:06:03.537Z,63.54
2024-04-18T09:08:30.584Z,60.50
2024-04-18T09:11:00.414Z,61.24
2024-04-18T09:13:27.425Z,59.82
2024-04-18T09:15:54.377Z,59.70
2024-04-18T09:18:21.557Z,59.15
2024-04-18T09:20:49.505Z,59.25
2024-04-18T09:23:17.548Z,58.97
2024-04-18T09:25:45.924Z,57.92
2024-04-18T09:28:13.108Z,57.77
2024-04-18T09:30:40.733Z,58.92
2024-04-18T09:33:09.006Z,61.04
2024-04-18T09:35:37.079Z,62.28
2024-04-18T09:38:10.222Z,61.52
2024-04-18T09:40:45.711Z,62.67
2024-04-18T09:43:32.812Z,63.47
2024-04-18T09:46:07.105Z,64.09
2024-04-18T09:48:34.483Z,64.63
2024-04-18T09:51:04.281Z,63.62
2024-04-18T09:53:31.519Z,63.47
2024-04-18T09:56:01.637Z,62.17
2024-04-18T09:58:29.513Z,59.89
2024-04-18T10:00:59.991Z,61.19
2024-04-18T10:03:29.276Z,60.59
2024-04-18T10:06:00.896Z,61.38
2024-04-18T10:08:51.917Z,59.79
2024-04-18T10:11:25.844Z,58.93
2024-04-18T10:13:53.103Z,59.68
2024-04-18T10:16:21.218Z,58.18
2024-04-18T10:18:51.500Z,56.19
2024-04-18T10:21:32.196Z,56.29
2024-04-18T10:24:06.847Z,54.68
2024-04-18T10:26:36.728Z,51.53
2024-04-18T10:29:03.796Z,50.24
2024-04-18T10:31:31.064Z,50.42
2024-04-18T10:33:58.888Z,49.83
2024-04-18T10:36:27.509Z,51.09
2024-04-18T10:38:54.822Z,50.85
2024-04-18T10:41:25.567Z,49.25
2024-04-18T10:43:52.903Z,50.94
2024-04-18T10:46:20.728Z,51.05
2024-04-18T10:48:54.996Z,50.75
2024-04-18T10:51:22.268Z,53.31
2024-04-18T10:53:49.295Z,55.20
2024-04-18T10:56:16.550Z,55.37
2024-04-18T10:58:43.823Z,55.91
2024-04-18T11:01:10.840Z,54.29
2024-04-18T11:03:38.023Z,52.85
2024-04-18T11:06:05.242Z,52.36
2024-04-18T11:08:35.131Z,53.20
2024-04-18T11:11:04.724Z,52.70
2024-04-18T11:13:31.886Z,50.83
2024-04-18T11:15:59.000Z,49.41
2024-04-18T11:18:26.298Z,49.83
2024-04-18T11:20:54.011Z,49.93
2024-04-18T11:23:35.289Z,49.06
2024-04-18T11:26:14.271Z,48.41
2024-04-18T11:28:41.652Z,47.79
2024-04-18T11:31:08.680Z,47.62
2024-04-18T11:33:36.392Z,46.95
2024-04-18T11:36:03.828Z,45.80
2024-04-18T11:38:32.780Z,46.00
2024-04-18T11:41:01.503Z,43.16
2024-04-18T11:43:28.584Z,43.69
2024-04-18T11:45:55.979Z,42.50
2024-04-18T11:48:23.123Z,40.98
2024-04-18T11:50:50.246Z,42.24
2024-04-18T11:53:17.242Z,42.33
2024-04-18T11:55:44.208Z,42.58
2024-04-18T11:58:11.185Z,42.25
2024-04-18T12:00:38.260Z,42.61
2024-04-18T12:03:07.166Z,41.52
2024-04-18T12:05:34.189Z,42.95
2024-04-18T12:08:01.221Z,42.38
2024-04-18T12:10:28.220Z,43.02
2024-04-18T12:12:55.353Z,45.71
2024-04-18T12:15:22.354Z,48.73
2024-04-18T12:17:49.435Z,51.53
2024-04-18T12:20:20.612Z,51.35
2024-04-18T12:22:47.758Z,51.81
2024-04-18T12:25:18.785Z,51.58
2024-04-18T12:27:47.006Z,52.95
2024-04-18T12:30:14.050Z,54.92
2024-04-18T12:32:41.098Z,56.89
2024-04-18T12:35:09.244Z,57.35
2024-04-18T12:37:36.265Z,58.14
2024-04-18T12:40:06.361Z,57.12
2024-04-18T12:42:35.221Z,56.61
2024-04-18T12:45:02.465Z,55.52
2024-04-18T12:47:29.732Z,55.08
2024-04-18T12:49:56.993Z,52.91
2024-04-18T12:52:24.084Z,52.16
2024-04-18T12:54:51.125Z,47.06
2024-04-18T12:57:18.199Z,47.20
2024-04-18T12:59:45.211Z,46.95
2024-04-18T13:02:13.193Z,44.02
2024-04-18T13:04:41.048Z,44.32
2024-04-18T13:07:08.141Z,45.55
2024-04-18T13:09:35.278Z,43.59
2024-04-18T13:12:04.184Z,44.29
2024-04-18T13:14:31.430Z,46.19
2024-04-18T13:16:58.597Z,44.52
2024-04-18T13:19:25.624Z,44.47
2024-04-18T13:21:52.605Z,44.96
2024-04-18T13:24:21.196Z,46.67
2024-04-18T13:26:48.204Z,46.17
2024-04-18T13:29:15.214Z,49.02
2024-04-18T13:31:42.339Z,51.16
2024-04-18T13:34:09.683Z,54.20
2024-04-18T13:36:37.445Z,55.13
2024-04-18T13:39:04.595Z,55.00
2024-04-18T13:41:31.739Z,54.67
2024-04-18T13:43:58.698Z,56.65
2024-04-18T13:46:25.727Z,59.34
2024-04-18T13:48:52.853Z,62.07
2024-04-18T13:51:20.375Z,62.12
2024-04-18T13:53:47.535Z,63.33
2024-04-18T13:56:14.538Z,62.99
2024-04-18T13:58:41.586Z,63.77
2024-04-18T14:01:08.575Z,64.81
2024-04-18T14:03:35.850Z,65.14
2024-04-18T14:06:03.131Z,64.40
2024-04-18T14:08:30.425Z,66.49
2024-04-18T14:10:57.380Z,67.66
2024-04-18T14:13:24.530Z,66.25
2024-04-18T14:16:14.021Z,66.96
2024-04-18T14:18:49.813Z,66.78
2024-04-18T14:21:17.803Z,65.76
2024-04-18T14:23:45.385Z,65.07
2024-04-18T14:26:12.377Z,66.24
2024-04-18T14:28:39.539Z,66.62
2024-04-18T14:31:06.551Z,66.11
2024-04-18T14:33:33.746Z,65.49
2024-04-18T14:36:00.975Z,65.70
2024-04-18T14:38:29.759Z,64.34
2024-04-18T14:41:05.568Z,64.89
2024-04-18T14:43:38.219Z,62.51
2024-04-18T14:46:05.365Z,63.01
2024-04-18T14:48:34.648Z,63.92
2024-04-18T14:51:01.868Z,64.12
2024-04-18T14:53:28.942Z,65.71
2024-04-18T14:55:57.108Z,64.18
2024-04-18T14:58:24.200Z,63.62
2024-04-18T15:00:53.044Z,63.48
2024-04-18T15:03:20.875Z,63.21
2024-04-18T15:05:56.405Z,63.84
2024-04-18T15:08:25.091Z,64.75
2024-04-18T15:10:52.392Z,62.97
2024-04-18T15:13:19.454Z,63.22
2024-04-18T15:15:46.520Z,64.77
2024-04-18T15:18:14.750Z,65.27
2024-04-18T15:20:42.139Z,64.95
2024-04-18T15:23:12.544Z,66.76
2024-04-18T15:25:39.492Z,65.84
2024-04-18T15:28:07.003Z,65.16
2024-04-18T15:30:34.248Z,63.67
2024-04-18T15:33:01.319Z,64.96
2024-04-18T15:35:28.326Z,64.46
2024-04-18T15:37:55.323Z,63.85
2024-04-18T15:40:22.284Z,64.18
2024-04-18T15:42:49.304Z,63.53
2024-04-18T15:45:16.452Z,62.45
2024-04-18T15:47:43.581Z,59.95
2024-04-18T15:50:10.670Z,60.36
2024-04-18T15:52:39.684Z,58.91
2024-04-18T15:55:16.043Z,58.58
2024-04-18T15:57:48.711Z,61.04
2024-04-18T16:00:16.068Z,60.95
2024-04-18T16:02:44.810Z,61.93
2024-04-18T16:05:12.961Z,61.53
2024-04-18T16:07:39.934Z,62.32
2024-04-18T16:10:09.058Z,64.39
2024-04-18T16:12:36.370Z,64.27
2024-04-18T16:15:05.799Z,64.40
2024-04-18T16:17:33.814Z,66.40
2024-04-18T16:20:00.986Z,64.28
2024-04-18T16:22:29.461Z,64.77
2024-04-18T16:24:56.456Z,65.71
2024-04-18T16:27:23.590Z,65.99
2024-04-18T16:29:50.611Z,66.09
2024-04-18T16:32:17.598Z,65.72
2024-04-18T16:34:44.584Z,65.36
2024-04-18T16:37:14.129Z,64.22
2024-04-18T16:39:43.468Z,64.15
2024-04-18T16:42:10.573Z,62.90
2024-04-18T16:44:37.633Z,62.48
2024-04-18T16:47:05.033Z,61.36
2024-04-18T16:49:32.028Z,58.20
2024-04-18T16:51:59.262Z,59.38
2024-04-18T16:54:26.375Z,60.07
2024-04-18T16:56:53.677Z,60.42
2024-04-18T16:59:21.493Z,60.78
2024-04-18T17:01:48.515Z,58.89
2024-04-18T17:04:15.613Z,59.42
2024-04-18T17:06:48.062Z,59.06
2024-04-18T17:09:17.596Z,59.38
2024-04-18T17:11:44.964Z,59.93
2024-04-18T17:14:12.043Z,60.54
2024-04-18T17:16:39.682Z,61.43
2024-04-18T17:19:06.834Z,61.29
2024-04-18T17:21:36.399Z,62.01
2024-04-18T17:24:03.917Z,61.94
2024-04-18T17:26:30.995Z,62.93
2024-04-18T17:28:58.177Z,63.48
2024-04-18T17:31:25.254Z,63.44
2024-04-18T17:33:54.948Z,63.44
2024-04-18T17:36:22.528Z,63.73
2024-04-18T17:38:50.808Z,64.72
2024-04-18T17:41:17.876Z,65.18
2024-04-18T17:43:47.130Z,65.15
2024-04-18T17:46:14.466Z,65.88
2024-04-18T17:48:43.858Z,66.46
2024-04-18T17:51:11.191Z,65.95
2024-04-18T17:53:38.292Z,66.86
2024-04-18T17:56:05.766Z,66.78
2024-04-18T17:58:32.900Z,66.69
2024-04-18T18:00:59.941Z,67.63
2024-04-18T18:03:27.018Z,67.74
2024-04-18T18:05:54.109Z,67.90
2024-04-18T18:08:21.066Z,67.49
2024-04-18T18:10:48.140Z,67.90
2024-04-18T18:13:15.094Z,68.13
2024-04-18T18:15:42.138Z,68.38
2024-04-18T18:18:10.026Z,68.54
2024-04-18T18:20:37.246Z,68.46
2024-04-18T18:23:04.500Z,68.49
2024-04-18T18:25:31.475Z,68.92
2024-04-18T18:27:58.456Z,69.01
2024-04-18T18:30:26.038Z,69.20
2024-04-18T18:32:53.242Z,69.57
2024-04-18T18:35:20.249Z,69.38
2024-04-18T18:37:49.486Z,69.33
2024-04-18T18:40:16.602Z,69.02
2024-04-18T18:42:45.485Z,69.28
2024-04-18T18:45:12.656Z,69.60
2024-04-18T18:47:39.826Z,69.43
2024-04-18T18:50:07.915Z,69.57
2024-04-18T18:52:34.959Z,69.62
2024-04-18T18:55:01.979Z,69.74
2024-04-18T18:57:30.070Z,69.66
2024-04-18T18:59:57.245Z,69.84
2024-04-18T19:02:25.090Z,69.71
2024-04-18T19:04:52.172Z,69.62
2024-04-18T19:07:19.226Z,69.65
2024-04-18T19:09:46.343Z,69.92
2024-04-18T19:12:13.564Z,69.82
2024-04-18T19:14:40.583Z,70.12
2024-04-18T19:17:07.822Z,69.98
2024-04-18T19:19:35.132Z,70.12
2024-04-18T19:22:03.982Z,70.44
2024-04-18T19:24:31.115Z,70.09
2024-04-18T19:27:01.619Z,70.17
2024-04-18T19:29:39.647Z,69.95
2024-04-18T19:32:14.213Z,69.46
2024-04-18T19:34:41.408Z,69.90
2024-04-18T19:37:08.451Z,69.56
2024-04-18T19:39:35.624Z,69.65
2024-04-18T19:42:02.835Z,69.39
2024-04-18T19:44:31.463Z,69.54
2024-04-18T19:46:58.820Z,69.48
2024-04-18T19:49:28.308Z,70.33
2024-04-18T19:52:01.546Z,70.44
2024-04-18T19:54:31.096Z,70.60
2024-04-18T19:56:58.160Z,70.38
2024-04-18T19:59:25.195Z,70.22
2024-04-18T20:01:52.150Z,70.61
2024-04-18T20:04:19.439Z,70.28
2024-04-18T20:06:46.616Z,70.27
2024-04-18T20:09:13.680Z,70.41
2024-04-18T20:11:40.791Z,70.28
2024-04-18T20:14:07.822Z,70.49
2024-04-18T20:16:35.275Z,70.37
2024-04-18T20:19:02.557Z,70.67
2024-04-18T20:21:29.796Z,71.04
2024-04-18T20:23:56.754Z,70.86
2024-04-18T20:26:23.759Z,70.71
2024-04-18T20:28:51.647Z,71.15
2024-04-18T20:31:18.684Z,71.17
2024-04-18T20:33:45.979Z,71.14
2024-04-18T20:36:13.054Z,71.20
2024-04-18T20:38:40.072Z,71.54
2024-04-18T20:41:07.042Z,71.70
2024-04-18T20:43:34.018Z,71.41
2024-04-18T20:46:01.081Z,72.04
2024-04-18T20:48:28.218Z,71.74
2024-04-18T20:50:55.292Z,72.00
2024-04-18T20:53:22.346Z,71.69
2024-04-18T20:55:49.317Z,72.35
2024-04-18T20:58:16.380Z,71.80
2024-04-18T21:00:46.825Z,71.76
2024-04-18T21:03:13.962Z,71.55
2024-04-18T21:05:47.388Z,72.67
2024-04-18T21:08:14.887Z,72.15
2024-04-18T21:10:42.941Z,73.97
2024-04-18T21:13:13.810Z,74.13
2024-04-18T21:15:41.197Z,73.70
2024-04-18T21:18:08.725Z,73.35
2024-04-18T21:20:36.235Z,72.66
2024-04-18T21:23:03.240Z,72.88
2024-04-18T21:25:30.286Z,72.88
2024-04-18T21:27:57.281Z,72.47
2024-04-18T21:30:24.255Z,72.50
2024-04-18T21:32:54.281Z,72.28
2024-04-18T21:35:21.609Z,72.50
2024-04-18T21:37:48.611Z,71.74
2024-04-18T21:40:15.771Z,71.92
2024-04-18T21:42:42.843Z,71.41
2024-04-18T21:45:09.996Z,71.66
2024-04-18T21:47:37.177Z,71.79
2024-04-18T21:50:04.653Z,71.76
2024-04-18T21:52:31.639Z,72.71
2024-04-18T21:54:58.658Z,71.60
2024-04-18T21:57:26.018Z,71.98
2024-04-18T21:59:53.273Z,71.61
2024-04-18T22:02:20.317Z,72.08
2024-04-18T22:04:48.217Z,71.71
2024-04-18T22:07:15.191Z,71.21
2024-04-18T22:09:42.220Z,71.38
2024-04-18T22:12:09.639Z,71.20
2024-04-18T22:14:36.667Z,71.47
2024-04-18T22:17:03.702Z,71.59
2024-04-18T22:19:30.776Z,72.05
2024-04-18T22:21:57.826Z,71.94
2024-04-18T22:24:24.853Z,71.78
2024-04-18T22:26:51.854Z,71.73
2024-04-18T22:29:18.805Z,71.79
2024-04-18T22:31:45.750Z,71.19
2024-04-18T22:34:24.423Z,70.89
2024-04-18T22:36:55.316Z,70.81
2024-04-18T22:39:22.410Z,70.81
2024-04-18T22:41:49.459Z,70.50
2024-04-18T22:44:16.445Z,71.69
2024-04-18T22:46:43.427Z,71.18
2024-04-18T22:49:10.454Z,71.46
2024-04-18T22:51:37.452Z,72.17
2024-04-18T22:54:04.568Z,71.35
2024-04-18T22:56:31.586Z,71.43
2024-04-18T22:58:58.559Z,71.25
2024-04-18T23:01:25.675Z,71.16
2024-04-18T23:03:52.778Z,71.42
2024-04-18T23:06:20.413Z,71.49
2024-04-18T23:08:47.401Z,71.19
2024-04-18T23:11:14.967Z,72.02
2024-04-18T23:13:42.087Z,71.48
2024-04-18T23:16:09.297Z,71.42
2024-04-18T23:18:36.566Z,72.14
2024-04-18T23:21:03.875Z,71.43
2024-04-18T23:23:30.845Z,71.82
2024-04-18T23:25:57.785Z,71.86
2024-04-18T23:28:24.756Z,71.89
2024-04-18T23:30:51.954Z,73.04
2024-04-18T23:33:19.038Z,72.24
2024-04-18T23:35:46.331Z,71.79
2024-04-18T23:38:13.448Z,71.61
2024-04-18T23:40:40.398Z,71.45
2024-04-18T23:43:07.376Z,71.80
2024-04-18T23:45:34.817Z,71.43
2024-04-18T23:48:02.043Z,70.90
2024-04-18T23:50:29.040Z,70.87
2024-04-18T23:52:56.025Z,71.30
2024-04-18T23:55:23.055Z,70.95
2024-04-18T23:57:50.070Z,71.61
